Time;durP1;ratioP1;P1;durP2;ratioP2;P2;SDS_P1;SDS_P2;PMS_P1;PMS_P2;Temp;Humidity;BMP_temperature;BMP_pressure;BME280_temperature;BME280_humidity;BME280_pressure;Samples;Min_cycle;Max_cycle;Signal;HPM_P1;HPM_P2
2021/07/08 00:02:19;;;;;;;8.83;7.03;;;20.00;99.90;19.30;97112.00;;;;5086884;28;20219;-66
2021/07/08 00:05:12;;;;;;;8.03;7.23;;;19.90;99.90;19.30;97114.00;;;;5086787;28;20207;-66
2021/07/08 00:08:01;;;;;;;8.13;7.43;;;19.80;99.90;19.30;97118.00;;;;5080154;28;20207;-66
2021/07/08 00:10:54;;;;;;;8.33;7.53;;;19.70;99.90;19.50;97118.00;;;;5086361;28;20234;-65
2021/07/08 00:13:45;;;;;;;7.73;7.00;;;19.70;99.90;19.50;97126.00;;;;5087235;28;20591;-65
2021/07/08 00:16:35;;;;;;;8.57;7.60;;;19.70;99.90;19.70;97118.00;;;;5086090;28;20211;-65
2021/07/08 00:19:26;;;;;;;8.20;7.40;;;19.70;99.90;19.70;97115.00;;;;5092036;28;20609;-64
2021/07/08 00:22:15;;;;;;;7.17;6.53;;;19.80;99.90;19.60;97120.00;;;;5107396;28;20226;-65
2021/07/08 00:25:08;;;;;;;7.63;6.93;;;19.80;99.90;19.60;97120.00;;;;5093326;28;20207;-65
2021/07/08 00:27:57;;;;;;;9.40;7.60;;;19.80;99.90;19.60;97106.00;;;;5107133;28;20207;-65
2021/07/08 00:30:49;;;;;;;7.83;7.03;;;19.80;99.90;19.60;97110.00;;;;5106496;28;20219;-65
2021/07/08 00:33:39;;;;;;;7.97;7.17;;;19.80;99.90;19.60;97114.00;;;;5107318;28;20207;-66
2021/07/08 00:36:29;;;;;;;8.27;7.47;;;19.80;99.90;19.40;97115.00;;;;5107077;28;20195;-65
2021/07/08 00:39:18;;;;;;;9.80;8.80;;;19.80;99.90;19.10;97106.00;;;;5107136;28;20206;-65
2021/07/08 00:42:07;;;;;;;7.57;6.87;;;19.70;99.90;19.20;97103.00;;;;5106882;28;20226;-65
2021/07/08 00:44:56;;;;;;;7.53;6.83;;;19.60;99.90;19.40;97109.00;;;;5106039;28;20575;-66
2021/07/08 00:47:45;;;;;;;9.23;8.43;;;19.60;99.90;19.40;97114.00;;;;5107563;28;20206;-66
2021/07/08 00:50:42;;;;;;;8.40;7.60;;;19.60;99.90;19.20;97105.00;;;;5105969;28;21161;-65
2021/07/08 00:53:32;;;;;;;7.57;6.90;;;19.50;99.90;19.00;97102.00;;;;5105510;28;20195;-67
2021/07/08 00:56:21;;;;;;;8.73;7.83;;;19.50;99.90;19.20;97106.00;;;;5106640;28;20208;-66
2021/07/08 00:59:11;;;;;;;6.73;6.03;;;19.40;99.90;19.30;97103.00;;;;5105737;28;20198;-66
2021/07/08 01:02:00;;;;;;;8.27;7.57;;;19.50;99.90;19.20;97096.00;;;;5105912;28;20225;-66
2021/07/08 01:04:50;;;;;;;7.63;6.83;;;19.40;99.90;19.10;97103.00;;;;5105572;28;20576;-66
2021/07/08 01:07:39;;;;;;;8.50;7.03;;;19.40;99.90;19.10;97090.00;;;;5106285;28;20209;-66
2021/07/08 01:10:30;;;;;;;8.80;7.00;;;19.40;99.90;19.00;97095.00;;;;5104842;28;20213;-65
2021/07/08 01:13:21;;;;;;;8.27;7.50;;;19.40;99.90;19.10;97103.00;;;;5105706;28;20231;-65
2021/07/08 01:16:10;;;;;;;7.17;6.47;;;19.40;99.90;19.00;97105.00;;;;5106849;28;20557;-65
2021/07/08 01:18:59;;;;;;;8.13;7.43;;;19.30;99.90;18.80;97097.00;;;;5092633;28;20210;-66
2021/07/08 01:21:50;;;;;;;10.97;7.97;;;19.30;99.90;18.90;97107.00;;;;5084988;28;20229;-65
2021/07/08 01:24:39;;;;;;;9.40;8.57;;;19.20;99.90;18.70;97102.00;;;;5072097;28;20217;-65
2021/07/08 01:27:28;;;;;;;8.90;8.00;;;19.20;99.90;18.80;97101.00;;;;5086216;28;20206;-66
2021/07/08 01:30:18;;;;;;;9.10;7.17;;;19.10;99.90;18.80;97097.00;;;;5074842;28;20218;-66
2021/07/08 01:33:08;;;;;;;8.63;7.17;;;19.10;99.90;18.80;97103.00;;;;5086100;28;20223;-64
2021/07/08 01:35:59;;;;;;;8.93;8.03;;;19.10;99.90;18.40;97106.00;;;;5084931;28;20209;-65
2021/07/08 01:38:49;;;;;;;8.27;7.43;;;19.10;99.90;18.30;97110.00;;;;5085734;28;20667;-64
2021/07/08 01:41:38;;;;;;;9.97;9.07;;;18.90;99.90;18.40;97098.00;;;;5084785;28;20257;-63
2021/07/08 01:44:27;;;;;;;8.67;7.83;;;18.80;99.90;18.60;97103.00;;;;5084679;28;20576;-65
2021/07/08 01:47:16;;;;;;;9.00;8.20;;;18.80;99.90;18.50;97111.00;;;;5084997;28;20203;-66
2021/07/08 01:50:07;;;;;;;9.73;7.90;;;18.80;99.90;18.30;97108.00;;;;5084985;28;20203;-67
2021/07/08 01:52:55;;;;;;;8.90;8.10;;;18.80;99.90;18.40;97104.00;;;;5085973;28;20235;-65
2021/07/08 01:55:46;;;;;;;8.97;7.77;;;18.70;99.90;18.40;97094.00;;;;5084685;28;20211;-66
2021/07/08 01:58:34;;;;;;;9.40;8.43;;;18.70;99.90;18.50;97099.00;;;;5075968;28;20207;-65
2021/07/08 02:01:24;;;;;;;9.60;7.83;;;18.70;99.90;18.50;97105.00;;;;5085502;28;20229;-65
2021/07/08 02:04:13;;;;;;;8.37;7.57;;;18.70;99.90;18.30;97084.00;;;;5085451;28;20301;-65
2021/07/08 02:07:02;;;;;;;8.83;7.93;;;18.70;99.90;18.00;97090.00;;;;5089718;28;20199;-63
2021/07/08 02:09:51;;;;;;;10.00;9.00;;;18.60;99.90;17.80;97084.00;;;;5089324;28;20210;-66
2021/07/08 02:12:42;;;;;;;9.43;8.30;;;18.50;99.90;18.00;97083.00;;;;5088686;28;20242;-65
2021/07/08 02:15:31;;;;;;;9.20;8.30;;;18.40;99.90;18.00;97085.00;;;;5089767;28;20210;-65
2021/07/08 02:18:20;;;;;;;11.53;8.83;;;18.40;99.90;18.10;97085.00;;;;5090453;28;20200;-65
2021/07/08 02:21:11;;;;;;;9.60;8.70;;;18.40;99.90;18.20;97086.00;;;;5088827;28;20211;-64
2021/07/08 02:24:00;;;;;;;9.20;8.13;;;18.40;99.90;18.10;97088.00;;;;5078396;28;20235;-65
2021/07/08 02:26:49;;;;;;;8.93;8.13;;;18.40;99.90;18.00;97096.00;;;;5077048;28;20207;-64
2021/07/08 02:29:40;;;;;;;9.10;8.23;;;18.40;99.90;17.90;97088.00;;;;5089381;28;20316;-65
2021/07/08 02:32:28;;;;;;;8.80;8.07;;;18.30;99.90;17.90;97088.00;;;;5089590;28;20227;-64
2021/07/08 02:35:17;;;;;;;9.17;8.13;;;18.30;99.90;17.60;97080.00;;;;5088823;28;20210;-64
2021/07/08 02:38:06;;;;;;;12.73;9.17;;;18.20;99.90;17.60;97077.00;;;;5089414;28;20213;-65
2021/07/08 02:40:56;;;;;;;9.07;8.17;;;18.10;99.90;17.70;97083.00;;;;5088127;28;20222;-65
2021/07/08 02:43:45;;;;;;;10.03;8.93;;;18.10;99.90;17.80;97083.00;;;;5088922;28;20214;-64
2021/07/08 02:46:35;;;;;;;8.03;7.27;;;18.00;99.90;17.90;97082.00;;;;5089390;28;20207;-65
2021/07/08 02:49:24;;;;;;;8.40;7.60;;;18.10;99.90;17.90;97084.00;;;;5089410;28;20208;-64
2021/07/08 02:52:13;;;;;;;10.13;8.27;;;18.10;99.90;17.80;97084.00;;;;5090673;28;20231;-65
2021/07/08 02:55:02;;;;;;;8.63;7.83;;;18.10;99.90;17.60;97085.00;;;;5087914;28;20206;-66
2021/07/08 02:57:51;;;;;;;13.30;8.57;;;18.10;99.90;17.40;97084.00;;;;5088322;28;20199;-66
2021/07/08 03:00:40;;;;;;;9.60;8.63;;;18.00;99.90;17.40;97083.00;;;;5089147;28;20211;-65
2021/07/08 03:03:30;;;;;;;9.00;8.20;;;17.90;99.90;17.50;97080.00;;;;5088851;28;20211;-65
2021/07/08 03:06:19;;;;;;;12.87;8.83;;;17.80;99.90;17.30;97079.00;;;;5088931;28;20567;-65
2021/07/08 03:09:07;;;;;;;10.30;9.40;;;17.80;99.90;17.30;97073.00;;;;5087748;28;20226;-66
2021/07/08 03:11:56;;;;;;;9.33;8.47;;;17.80;99.90;17.50;97077.00;;;;5074862;28;20228;-65
2021/07/08 03:14:45;;;;;;;9.33;8.43;;;17.80;99.90;17.40;97081.00;;;;5087113;28;20204;-65
2021/07/08 03:17:34;;;;;;;9.20;7.80;;;17.70;99.90;17.50;97070.00;;;;5087443;28;20218;-65
2021/07/08 03:20:27;;;;;;;9.63;8.63;;;17.70;99.90;17.60;97076.00;;;;5079461;28;20212;-64
2021/07/08 03:23:16;;;;;;;10.40;9.40;;;17.80;99.90;17.80;97076.00;;;;5082385;28;20728;-66
2021/07/08 03:26:05;;;;;;;9.63;8.73;;;17.80;99.90;17.50;97080.00;;;;5081900;28;20199;-64
2021/07/08 03:28:55;;;;;;;8.73;8.00;;;17.80;99.90;17.30;97079.00;;;;5088518;28;20211;-65
2021/07/08 03:31:44;;;;;;;10.23;9.23;;;17.80;99.90;17.10;97081.00;;;;5086016;28;20234;-67
2021/07/08 03:34:33;;;;;;;10.93;8.43;;;17.70;99.90;17.20;97088.00;;;;5085304;28;20207;-67
2021/07/08 03:37:23;;;;;;;9.23;8.43;;;17.60;99.90;17.30;97083.00;;;;5087485;28;20203;-67
2021/07/08 03:40:14;;;;;;;9.50;8.60;;;17.60;99.90;17.20;97092.00;;;;5086788;28;20211;-65
2021/07/08 03:43:03;;;;;;;9.87;8.83;;;17.60;99.90;17.20;97084.00;;;;5088140;28;20223;-65
2021/07/08 03:45:53;;;;;;;11.80;9.63;;;17.60;99.90;17.10;97095.00;;;;5088311;28;20211;-65
2021/07/08 03:48:41;;;;;;;11.57;10.37;;;17.50;99.90;17.00;97088.00;;;;5087549;28;20246;-67
2021/07/08 03:51:30;;;;;;;10.47;9.47;;;17.50;99.90;16.80;97085.00;;;;5091135;28;20235;-66
2021/07/08 03:54:20;;;;;;;11.83;9.63;;;17.40;99.90;16.80;97093.00;;;;5087259;28;20207;-66
2021/07/08 03:57:09;;;;;;;10.90;9.80;;;17.30;99.90;17.00;97089.00;;;;5086945;28;20203;-65
2021/07/08 03:59:58;;;;;;;12.67;10.90;;;17.30;99.90;17.00;97090.00;;;;5085967;28;20207;-64
2021/07/08 04:02:47;;;;;;;11.20;9.90;;;17.30;99.90;16.80;97096.00;;;;5073410;28;20228;-65
2021/07/08 04:05:37;;;;;;;11.03;9.93;;;17.30;99.90;16.90;97091.00;;;;5087858;28;20293;-63
2021/07/08 04:08:26;;;;;;;11.27;10.27;;;17.30;99.90;17.10;97085.00;;;;5086702;28;20203;-64
2021/07/08 04:11:17;;;;;;;11.37;10.07;;;17.30;99.90;17.20;97089.00;;;;5086947;28;20749;-65
2021/07/08 04:14:06;;;;;;;11.23;10.13;;;17.40;99.90;17.10;97097.00;;;;5086454;28;20223;-65
2021/07/08 04:16:55;;;;;;;13.30;10.90;;;17.40;99.90;17.30;97100.00;;;;5086600;28;20219;-65
2021/07/08 04:19:44;;;;;;;11.40;10.30;;;17.50;99.90;17.30;97098.00;;;;5086662;28;20705;-64
2021/07/08 04:22:32;;;;;;;11.50;10.40;;;17.50;99.90;17.30;97096.00;;;;5086142;28;20301;-65
2021/07/08 04:25:21;;;;;;;16.50;10.10;;;17.50;99.90;17.40;97108.00;;;;5075268;28;20297;-65
2021/07/08 04:28:12;;;;;;;10.33;9.23;;;17.60;99.90;17.60;97108.00;;;;5080717;28;20208;-65
2021/07/08 04:31:02;;;;;;;11.27;10.27;;;17.60;99.90;17.70;97110.00;;;;5083463;28;20207;-65
2021/07/08 04:33:51;;;;;;;10.00;9.03;;;17.70;99.90;17.80;97111.00;;;;5084943;28;20233;-65
2021/07/08 04:36:40;;;;;;;9.93;9.03;;;17.80;99.90;17.80;97108.00;;;;5084617;28;20242;-66
2021/07/08 04:39:29;;;;;;;10.43;8.73;;;17.90;99.90;17.90;97124.00;;;;5086090;28;20211;-66
2021/07/08 04:42:18;;;;;;;11.83;9.33;;;18.60;99.90;18.00;97118.00;;;;5085330;28;20226;-66
2021/07/08 04:45:10;;;;;;;10.70;8.87;;;18.10;99.90;18.00;97124.00;;;;5084577;28;20199;-65
2021/07/08 04:48:00;;;;;;;11.17;10.10;;;19.30;99.90;18.10;97127.00;;;;5086527;28;20225;-66
2021/07/08 04:50:49;;;;;;;11.63;10.43;;;18.20;99.90;18.20;97116.00;;;;5093452;28;20205;-65
2021/07/08 04:53:38;;;;;;;10.17;9.27;;;18.30;99.90;18.40;97115.00;;;;5085451;28;20226;-65
2021/07/08 04:56:27;;;;;;;10.43;9.43;;;18.40;99.90;18.50;97115.00;;;;5086431;28;20199;-65
2021/07/08 04:59:16;;;;;;;10.00;9.10;;;18.50;99.90;18.70;97114.00;;;;5083723;28;20225;-65
2021/07/08 05:02:06;;;;;;;10.43;9.47;;;18.60;99.90;18.70;97097.00;;;;5086274;28;20238;-65
2021/07/08 05:04:55;;;;;;;9.77;8.77;;;18.70;99.90;18.90;97104.00;;;;5086509;28;20241;-62
2021/07/08 05:07:44;;;;;;;9.97;8.37;;;18.90;99.90;19.10;97093.00;;;;5075606;28;20211;-65
2021/07/08 05:10:33;;;;;;;11.47;10.37;;;19.00;99.90;19.30;97103.00;;;;5084584;28;20583;-65
2021/07/08 05:13:22;;;;;;;11.70;10.73;;;19.20;99.90;19.40;97101.00;;;;5084995;28;20664;-66
2021/07/08 05:16:11;;;;;;;11.77;10.57;;;19.30;99.90;19.70;97106.00;;;;5085169;28;20690;-65
2021/07/08 05:19:01;;;;;;;13.97;10.83;;;19.50;99.90;19.80;97103.00;;;;5084617;28;20279;-65
2021/07/08 05:21:52;;;;;;;12.97;10.77;;;19.70;99.90;19.90;97099.00;;;;5084061;28;20219;-65
2021/07/08 05:24:41;;;;;;;12.77;11.33;;;19.80;99.90;20.00;97102.00;;;;5071319;28;20226;-66
2021/07/08 05:27:31;;;;;;;12.27;10.97;;;20.00;99.90;20.20;97105.00;;;;5086113;28;20207;-65
2021/07/08 05:30:21;;;;;;;16.43;11.17;;;20.10;99.90;20.40;97108.00;;;;5084085;28;20195;-65
2021/07/08 05:33:10;;;;;;;14.80;10.00;;;20.20;99.90;20.50;97102.00;;;;5084703;28;20240;-65
2021/07/08 05:36:00;;;;;;;12.03;10.67;;;20.40;99.90;20.50;97110.00;;;;5084649;28;20203;-64
2021/07/08 05:38:49;;;;;;;12.50;11.20;;;20.50;99.90;20.60;97107.00;;;;5086145;28;20203;-65
2021/07/08 05:41:38;;;;;;;12.30;11.10;;;20.60;99.90;20.70;97113.00;;;;5083598;28;20612;-65
2021/07/08 05:44:27;;;;;;;12.53;10.47;;;20.70;99.90;20.90;97112.00;;;;5084835;28;20199;-65
2021/07/08 05:47:16;;;;;;;11.93;10.87;;;20.80;99.90;21.10;97100.00;;;;5085344;28;20222;-66
2021/07/08 05:50:15;;;;;;;11.90;10.37;;;21.00;99.90;21.20;97103.00;;;;5084273;28;20199;-64
2021/07/08 05:53:05;;;;;;;11.47;10.37;;;21.10;99.90;21.50;97109.00;;;;5068173;28;20219;-66
2021/07/08 05:55:54;;;;;;;11.53;10.40;;;21.20;99.90;21.90;97105.00;;;;5084304;28;20199;-66
2021/07/08 05:58:43;;;;;;;11.00;9.63;;;21.40;99.90;21.90;97107.00;;;;5085228;28;20218;-66
2021/07/08 06:01:32;;;;;;;16.83;9.73;;;21.70;99.90;22.10;97113.00;;;;5084433;28;20215;-65
2021/07/08 06:04:20;;;;;;;12.50;10.53;;;21.80;99.90;22.20;97115.00;;;;5084488;28;20242;-65
2021/07/08 06:07:10;;;;;;;11.57;10.37;;;22.00;99.90;22.50;97114.00;;;;5084993;28;20199;-65
2021/07/08 06:10:00;;;;;;;11.23;10.13;;;22.20;99.90;22.70;97118.00;;;;5083884;28;20676;-66
2021/07/08 06:12:48;;;;;;;12.90;9.77;;;22.40;99.90;22.90;97114.00;;;;5085895;28;20223;-66
2021/07/08 06:15:40;;;;;;;10.30;9.17;;;22.60;99.90;23.10;97109.00;;;;5073609;28;20209;-65
2021/07/08 06:18:29;;;;;;;10.43;8.77;;;22.70;99.90;23.40;97114.00;;;;5086119;28;20244;-65
2021/07/08 06:21:18;;;;;;;9.33;8.30;;;23.00;99.90;23.60;97110.00;;;;5086137;28;20217;-66
2021/07/08 06:24:08;;;;;;;10.07;9.07;;;23.20;99.90;23.80;97099.00;;;;5074056;28;20204;-67
2021/07/08 06:26:59;;;;;;;10.00;8.80;;;23.40;99.90;24.00;97101.00;;;;5067196;28;20214;-66
2021/07/08 06:29:47;;;;;;;15.57;8.20;;;23.60;99.90;24.20;97105.00;;;;5084649;28;20690;-66
2021/07/08 06:32:36;;;;;;;8.73;7.83;;;23.80;99.90;24.40;97104.00;;;;5085412;28;20231;-66
2021/07/08 06:35:25;;;;;;;10.07;8.23;;;24.00;99.90;24.60;97102.00;;;;5080927;28;20202;-67
2021/07/08 06:38:14;;;;;;;9.60;8.63;;;24.20;99.90;24.80;97108.00;;;;5074621;28;20203;-65
2021/07/08 06:41:03;;;;;;;11.83;7.47;;;24.40;99.90;24.90;97114.00;;;;5075489;28;20207;-67
2021/07/08 06:43:53;;;;;;;10.27;8.30;;;24.50;99.90;25.00;97110.00;;;;5072395;28;20233;-66
2021/07/08 06:46:49;;;;;;;10.57;7.33;;;24.70;99.90;25.20;97108.00;;;;5083185;28;20203;-66
2021/07/08 06:49:38;;;;;;;10.77;8.23;;;24.90;99.90;25.40;97101.00;;;;5077015;28;20312;-65
2021/07/08 06:52:27;;;;;;;8.30;7.50;;;25.00;99.90;25.60;97100.00;;;;5089995;28;20234;-66
2021/07/08 06:55:16;;;;;;;8.27;7.43;;;25.20;99.90;25.80;97096.00;;;;5075481;28;20225;-68
2021/07/08 06:58:05;;;;;;;11.03;8.07;;;25.30;99.90;25.90;97094.00;;;;5075606;28;20209;-66
2021/07/08 07:00:55;;;;;;;7.00;6.40;;;25.50;99.90;26.00;97099.00;;;;5083085;28;20660;-66
2021/07/08 07:03:44;;;;;;;9.03;6.57;;;25.70;99.90;26.20;97099.00;;;;5086175;28;20196;-66
2021/07/08 07:06:33;;;;;;;9.63;6.73;;;25.80;99.90;26.10;97093.00;;;;5088321;28;20198;-65
2021/07/08 07:09:22;;;;;;;5.93;5.43;;;26.00;99.90;26.30;97085.00;;;;5085527;28;20196;-67
2021/07/08 07:12:12;;;;;;;7.37;6.67;;;26.00;99.90;26.20;97093.00;;;;5081882;28;20223;-67
2021/07/08 07:15:01;;;;;;;6.93;6.20;;;26.10;99.90;25.80;97086.00;;;;5085608;28;20238;-65
2021/07/08 07:17:53;;;;;;;6.87;6.07;;;26.10;99.90;26.20;97083.00;;;;5088128;28;20657;-66
2021/07/08 07:20:42;;;;;;;6.43;5.50;;;26.10;99.90;26.60;97093.00;;;;5070265;28;20200;-63
2021/07/08 07:23:31;;;;;;;6.40;5.83;;;26.20;99.90;26.80;97088.00;;;;5081675;28;20213;-66
2021/07/08 07:26:21;;;;;;;6.87;6.03;;;26.40;99.90;27.00;97095.00;;;;5083465;28;20228;-66
2021/07/08 07:29:10;;;;;;;6.00;5.50;;;26.50;99.90;27.20;97088.00;;;;5086925;28;20270;-66
2021/07/08 07:31:59;;;;;;;6.83;6.20;;;26.70;99.90;27.40;97095.00;;;;5071706;28;20645;-66
2021/07/08 07:34:49;;;;;;;8.77;5.63;;;26.90;99.90;27.50;97087.00;;;;5080292;28;20221;-68
2021/07/08 07:37:38;;;;;;;7.30;5.77;;;27.10;99.90;27.70;97093.00;;;;5079946;28;20211;-66
2021/07/08 07:40:27;;;;;;;6.47;5.13;;;27.20;99.90;27.80;97092.00;;;;5082789;28;20214;-67
2021/07/08 07:43:16;;;;;;;9.37;6.13;;;27.40;99.90;28.00;97098.00;;;;5082531;28;20880;-66
2021/07/08 07:46:05;;;;;;;6.13;4.90;;;27.60;99.90;28.20;97094.00;;;;5087555;28;20206;-68
2021/07/08 07:48:54;;;;;;;5.73;5.27;;;27.80;99.90;28.30;97089.00;;;;5087065;28;20256;-66
2021/07/08 07:51:44;;;;;;;5.57;5.07;;;27.90;99.90;28.30;97091.00;;;;5091798;28;20593;-66
2021/07/08 07:54:33;;;;;;;6.97;5.20;;;28.00;99.90;28.50;97090.00;;;;5079633;28;20456;-65
2021/07/08 07:57:24;;;;;;;5.70;5.20;;;28.10;99.90;28.50;97092.00;;;;5082776;28;20214;-65
2021/07/08 08:00:13;;;;;;;7.03;5.60;;;28.30;99.90;28.30;97092.00;;;;5087870;28;20206;-65
2021/07/08 08:03:02;;;;;;;6.47;5.87;;;28.30;99.90;27.80;97082.00;;;;5086922;28;20222;-66
2021/07/08 08:08:27;;;;;;;5.60;5.10;;;28.40;99.90;27.90;97087.00;;;;5088427;28;20202;-66
2021/07/08 08:09:05;;;;;;;6.07;5.47;;;28.20;99.90;28.50;97099.00;;;;5075992;28;20232;-66
2021/07/08 08:11:55;;;;;;;6.03;5.43;;;28.20;99.90;28.70;97085.00;;;;5083879;28;20917;-66
2021/07/08 08:14:44;;;;;;;9.73;5.60;;;28.40;99.90;28.70;97088.00;;;;5078809;28;20516;-67
2021/07/08 08:17:33;;;;;;;5.77;5.03;;;28.50;99.90;29.00;97078.00;;;;5076829;28;20705;-66
2021/07/08 08:20:32;;;;;;;10.53;6.07;;;28.60;99.90;29.00;97086.00;;;;5086020;28;20203;-66
2021/07/08 08:23:21;;;;;;;8.90;5.87;;;28.70;99.70;29.10;97079.00;;;;5082053;28;20221;-66
2021/07/08 08:26:11;;;;;;;6.63;5.97;;;28.90;99.00;29.10;97084.00;;;;5086126;28;20207;-68
2021/07/08 08:29:00;;;;;;;6.43;5.83;;;29.10;97.90;28.80;97085.00;;;;5085676;28;20570;-68
2021/07/08 08:31:49;;;;;;;7.03;6.43;;;29.00;97.30;28.90;97089.00;;;;5066375;28;20584;-64
2021/07/08 08:34:38;;;;;;;6.40;5.80;;;28.70;97.70;29.20;97093.00;;;;5086140;28;20274;-65
2021/07/08 08:37:27;;;;;;;6.70;5.00;;;29.00;98.00;29.60;97087.00;;;;5085813;28;20223;-65
2021/07/08 08:40:17;;;;;;;6.50;5.90;;;29.20;97.70;29.80;97086.00;;;;5085827;28;20196;-64
2021/07/08 08:43:07;;;;;;;8.90;5.90;;;29.30;96.80;29.90;97083.00;;;;5087067;28;20236;-64
2021/07/08 08:45:56;;;;;;;6.50;5.30;;;29.50;96.00;29.90;97082.00;;;;5087260;28;20208;-65
2021/07/08 08:48:45;;;;;;;6.87;5.77;;;29.70;96.10;29.70;97082.00;;;;5082923;28;20200;-65
2021/07/08 08:51:36;;;;;;;6.75;5.90;;;29.70;93.20;29.40;97082.00;;;;5078779;28;20220;-64
2021/07/08 08:54:26;;;;;;;9.20;6.20;;;29.60;92.40;30.00;97080.00;;;;5079014;28;20268;-67
2021/07/08 08:57:15;;;;;;;7.13;5.65;;;29.70;93.00;30.30;97076.00;;;;5080761;28;20210;-69
2021/07/08 09:00:57;;;;;;;9.82;6.70;;;29.80;93.40;30.40;97077.00;;;;5085184;28;20210;-65
2021/07/08 09:03:46;;;;;;;6.03;5.50;;;30.00;92.20;30.60;97083.00;;;;5062656;28;20207;-67
2021/07/08 09:06:38;;;;;;;6.35;5.75;;;30.10;91.00;30.10;97073.00;;;;5085388;28;20708;-66
2021/07/08 09:09:32;;;;;;;6.30;5.60;;;30.20;89.90;30.90;97076.00;;;;5084399;28;20209;-66
2021/07/08 09:12:24;;;;;;;6.15;5.53;;;30.30;90.40;30.40;97076.00;;;;5083510;28;20214;-64
2021/07/08 09:15:20;;;;;;;5.80;5.30;;;30.40;88.20;30.40;97087.00;;;;5079402;28;20231;-63
2021/07/08 09:18:13;;;;;;;6.18;5.57;;;30.40;88.20;30.10;97071.00;;;;5074780;28;20198;-66
2021/07/08 09:21:16;;;;;;;9.10;5.63;;;30.40;85.00;30.20;97073.00;;;;5086166;28;20221;-67
2021/07/08 09:24:18;;;;;;;6.30;5.20;;;30.40;85.70;30.20;97073.00;;;;5065344;28;20695;-66
2021/07/08 09:27:10;;;;;;;11.70;5.07;;;30.40;85.30;30.50;97069.00;;;;5074162;28;20215;-67
2021/07/08 09:29:59;;;;;;;5.47;5.07;;;30.40;83.80;30.50;97064.00;;;;5077949;28;20258;-67
2021/07/08 09:32:49;;;;;;;5.57;5.18;;;30.50;83.30;30.80;97065.00;;;;5093774;28;20226;-66
2021/07/08 09:35:40;;;;;;;5.63;5.05;;;30.50;84.40;31.50;97071.00;;;;5073065;28;20224;-67
2021/07/08 09:38:31;;;;;;;7.53;5.15;;;30.80;85.00;31.10;97060.00;;;;5074295;28;20196;-67
2021/07/08 09:41:22;;;;;;;7.20;5.57;;;31.00;81.10;30.60;97059.00;;;;5064453;28;20205;-66
2021/07/08 09:44:21;;;;;;;7.85;5.35;;;31.00;79.80;31.10;97055.00;;;;5079858;28;20204;-66
2021/07/08 09:47:27;;;;;;;8.13;5.40;;;31.00;80.30;30.90;97068.00;;;;5084941;28;20217;-65
2021/07/08 09:50:37;;;;;;;5.57;4.90;;;31.00;80.60;30.50;97056.00;;;;5090749;28;20589;-66
2021/07/08 09:53:28;;;;;;;8.02;5.60;;;30.90;78.80;30.50;97057.00;;;;5083076;28;20227;-65
2021/07/08 09:59:36;;;;;;;5.60;4.82;;;30.90;77.10;31.20;97059.00;;;;5078546;28;20201;-66
2021/07/08 10:02:31;;;;;;;6.53;4.72;;;31.00;76.40;32.00;97054.00;;;;5079793;28;20231;-67
2021/07/08 10:05:22;;;;;;;5.35;4.82;;;31.20;76.80;32.40;97044.00;;;;5079970;28;20197;-66
2021/07/08 10:08:13;;;;;;;5.20;4.70;;;31.50;76.30;32.70;97042.00;;;;5074582;28;20541;-65
2021/07/08 10:11:02;;;;;;;5.45;4.95;;;31.80;74.50;32.10;97044.00;;;;5067888;28;20370;-67
2021/07/08 10:13:51;;;;;;;5.05;4.57;;;32.00;76.00;31.70;97035.00;;;;5071976;28;20207;-66
2021/07/08 10:16:40;;;;;;;4.95;4.55;;;32.00;72.70;32.00;97038.00;;;;5084681;28;20229;-66
2021/07/08 10:19:29;;;;;;;5.30;3.88;;;31.90;74.10;32.30;97032.00;;;;5084658;28;20755;-68
2021/07/08 10:22:19;;;;;;;6.85;4.68;;;31.90;72.60;32.40;97032.00;;;;5083737;28;20220;-66
2021/07/08 10:25:12;;;;;;;5.20;4.70;;;32.10;72.60;31.80;97026.00;;;;5076613;28;20221;-69
2021/07/08 10:28:01;;;;;;;7.88;4.63;;;32.10;71.30;32.30;97019.00;;;;5089211;28;20212;-66
2021/07/08 10:30:52;;;;;;;5.50;5.00;;;32.10;72.70;32.20;97013.00;;;;5088771;28;20207;-67
2021/07/08 10:33:41;;;;;;;5.10;4.60;;;32.30;71.30;32.60;97004.00;;;;5088700;28;20210;-65
2021/07/08 10:36:31;;;;;;;5.22;4.72;;;32.30;68.90;33.00;97019.00;;;;5086663;28;20618;-67
2021/07/08 10:39:22;;;;;;;6.78;4.88;;;32.40;70.50;33.00;97014.00;;;;5094107;28;20204;-67
2021/07/08 10:42:12;;;;;;;5.32;4.80;;;32.60;69.30;33.50;97013.00;;;;5091152;28;20705;-66
2021/07/08 10:45:01;;;;;;;5.13;4.63;;;32.80;70.50;32.60;97004.00;;;;5073628;28;20203;-65
2021/07/08 10:47:52;;;;;;;5.15;4.68;;;32.70;69.10;33.20;97008.00;;;;5072593;28;20205;-68
2021/07/08 10:50:43;;;;;;;4.70;4.30;;;32.90;68.80;32.70;96991.00;;;;5090775;28;20198;-67
2021/07/08 10:53:37;;;;;;;4.97;4.45;;;32.90;69.40;31.20;96990.00;;;;5087822;28;20217;-67
2021/07/08 10:56:35;;;;;;;4.93;4.50;;;32.30;67.90;31.00;96985.00;;;;5087414;28;20228;-67
2021/07/08 10:59:39;;;;;;;5.25;4.75;;;31.60;69.90;30.80;97000.00;;;;5077801;28;20301;-65
2021/07/08 11:02:47;;;;;;;8.00;4.75;;;31.30;70.20;32.40;96985.00;;;;5077091;28;20226;-66
2021/07/08 11:05:54;;;;;;;6.18;4.78;;;31.60;74.60;31.50;96974.00;;;;5088236;28;20208;-66
2021/07/08 11:09:01;;;;;;;9.02;4.97;;;31.90;71.20;31.80;96974.00;;;;5088207;28;20207;-68
2021/07/08 11:12:06;;;;;;;7.47;5.25;;;31.90;70.40;33.40;96988.00;;;;5086664;28;20238;-66
2021/07/08 11:14:56;;;;;;;5.95;4.80;;;32.30;71.30;33.50;96986.00;;;;5089338;28;20207;-66
2021/07/08 11:17:47;;;;;;;6.25;4.95;;;32.60;68.70;33.20;96991.00;;;;5076579;28;20209;-66
2021/07/08 11:20:40;;;;;;;5.95;5.45;;;32.90;67.80;33.50;96967.00;;;;5080733;28;20572;-67
2021/07/08 11:23:40;;;;;;;5.90;5.22;;;33.20;67.50;33.70;96968.00;;;;5087332;28;20200;-66
2021/07/08 11:26:51;;;;;;;5.72;5.18;;;33.50;68.50;33.00;96957.00;;;;5080548;28;20193;-67
2021/07/08 11:29:43;;;;;;;5.90;5.32;;;33.40;66.40;34.20;96964.00;;;;5085728;28;20212;-67
2021/07/08 11:32:38;;;;;;;11.57;5.45;;;33.50;67.60;34.60;96975.00;;;;5097670;28;20832;-66
2021/07/08 11:35:31;;;;;;;7.25;5.75;;;33.80;67.20;34.60;97002.00;;;;5086276;28;20206;-67
2021/07/08 11:38:20;;;;;;;5.88;5.35;;;33.90;67.70;32.50;96970.00;;;;5085877;28;20210;-67
2021/07/08 11:41:10;;;;;;;6.47;5.45;;;33.50;65.40;31.80;97009.00;;;;5084585;28;20202;-67
2021/07/08 11:44:04;;;;;;;6.32;5.72;;;32.90;66.60;32.60;96977.00;;;;5086367;28;20202;-67
2021/07/08 11:46:56;;;;;;;6.35;5.82;;;32.70;68.40;34.10;96982.00;;;;5084668;28;20205;-69
2021/07/08 11:49:49;;;;;;;6.13;5.53;;;33.00;70.00;34.60;96968.00;;;;5071901;28;20289;-66
2021/07/08 11:52:38;;;;;;;6.70;6.10;;;33.40;67.70;34.10;96982.00;;;;5074588;28;20235;-67
2021/07/08 11:55:30;;;;;;;6.28;5.72;;;33.60;67.50;33.30;96950.00;;;;5077745;28;20191;-68
2021/07/08 11:58:22;;;;;;;6.32;5.75;;;33.60;65.40;34.90;96933.00;;;;5088052;28;20212;-67
2021/07/08 12:01:16;;;;;;;7.55;6.65;;;33.90;66.30;34.60;96938.00;;;;5068707;28;20211;-67
2021/07/08 12:04:05;;;;;;;7.28;6.13;;;34.40;63.50;35.30;96928.00;;;;5086673;28;20198;-67
2021/07/08 12:06:56;;;;;;;7.10;6.55;;;34.60;62.50;35.20;96951.00;;;;5086907;28;20245;-65
2021/07/08 12:09:49;;;;;;;6.32;5.70;;;34.80;61.60;35.30;96969.00;;;;5086063;28;20263;-63
2021/07/08 12:12:40;;;;;;;6.13;5.63;;;34.90;62.60;35.30;96938.00;;;;5075079;28;20223;-62
2021/07/08 12:15:30;;;;;;;6.85;6.28;;;35.00;61.70;35.10;96955.00;;;;5085565;28;20689;-65
2021/07/08 12:18:19;;;;;;;7.10;5.95;;;35.00;61.10;34.60;96957.00;;;;5087484;28;20593;-63
2021/07/08 12:21:19;;;;;;;6.43;5.93;;;34.80;60.10;34.50;96957.00;;;;5076213;28;20572;-63
2021/07/08 12:24:12;;;;;;;6.57;5.88;;;34.60;61.10;34.60;96946.00;;;;5060681;28;20200;-65
2021/07/08 12:27:03;;;;;;;5.78;5.32;;;34.50;61.60;33.90;96941.00;;;;5076337;28;20595;-63
2021/07/08 12:29:52;;;;;;;7.35;6.25;;;34.40;60.70;34.30;96931.00;;;;5080163;28;20602;-62
2021/07/08 12:32:40;;;;;;;6.20;5.68;;;34.20;62.00;34.70;96930.00;;;;5079982;28;20229;-64
2021/07/08 12:35:42;;;;;;;6.65;5.50;;;34.20;63.00;33.40;96913.00;;;;5082719;28;20191;-62
2021/07/08 12:38:37;;;;;;;7.05;5.50;;;34.20;60.70;33.50;96927.00;;;;5072344;28;20207;-64
2021/07/08 12:41:28;;;;;;;6.13;5.63;;;33.90;61.40;32.50;96917.00;;;;5081888;28;20248;-62